sensor_id;sensor_type;location;lat;lon;timestamp;temperature;humidity
37844;DHT22;63793;57.632;18.292;2023-05-10T00:02:18;7.40;99.90
37844;DHT22;63793;57.632;18.292;2023-05-10T00:04:45;7.40;99.90
37844;DHT22;63793;57.632;18.292;2023-05-10T00:07:12;7.30;99.90
37844;DHT22;63793;57.632;18.292;2023-05-10T00:09:39;7.40;99.90
37844;DHT22;63793;57.632;18.292;2023-05-10T00:12:06;7.30;99.90
37844;DHT22;63793;57.632;18.292;2023-05-10T00:14:33;7.40;99.90
37844;DHT22;63793;57.632;18.292;2023-05-10T00:17:00;7.40;99.90
37844;DHT22;63793;57.632;18.292;2023-05-10T00:19:27;7.50;99.90
37844;DHT22;63793;57.632;18.292;2023-05-10T00:21:54;7.40;99.90
37844;DHT22;63793;57.632;18.292;2023-05-10T00:24:21;7.40;99.90
37844;DHT22;63793;57.632;18.292;2023-05-10T00:26:47;7.40;99.90
37844;DHT22;63793;57.632;18.292;2023-05-10T00:29:14;7.40;99.90
37844;DHT22;63793;57.632;18.292;2023-05-10T00:31:41;7.40;99.90
37844;DHT22;63793;57.632;18.292;2023-05-10T00:34:08;7.40;99.90
37844;DHT22;63793;57.632;18.292;2023-05-10T00:36:35;7.30;99.90
37844;DHT22;63793;57.632;18.292;2023-05-10T00:39:02;7.30;99.90
37844;DHT22;63793;57.632;18.292;2023-05-10T00:41:30;7.30;99.90
37844;DHT22;63793;57.632;18.292;2023-05-10T00:44:01;7.30;99.90
37844;DHT22;63793;57.632;18.292;2023-05-10T00:46:28;7.30;99.90
37844;DHT22;63793;57.632;18.292;2023-05-10T00:48:56;7.30;99.90
37844;DHT22;63793;57.632;18.292;2023-05-10T00:51:23;7.30;99.90
37844;DHT22;63793;57.632;18.292;2023-05-10T00:53:50;7.30;99.90
37844;DHT22;63793;57.632;18.292;2023-05-10T00:56:18;7.30;99.90
37844;DHT22;63793;57.632;18.292;2023-05-10T00:58:47;7.30;99.90
37844;DHT22;63793;57.632;18.292;2023-05-10T01:01:13;7.20;99.90
37844;DHT22;63793;57.632;18.292;2023-05-10T01:03:41;7.20;99.90
37844;DHT22;63793;57.632;18.292;2023-05-10T01:06:08;7.20;99.90
37844;DHT22;63793;57.632;18.292;2023-05-10T01:08:36;7.20;99.90
37844;DHT22;63793;57.632;18.292;2023-05-10T01:11:03;7.20;99.90
37844;DHT22;63793;57.632;18.292;2023-05-10T01:16:03;7.10;99.90
37844;DHT22;63793;57.632;18.292;2023-05-10T01:18:38;7.20;99.90
37844;DHT22;63793;57.632;18.292;2023-05-10T01:21:45;7.20;99.90
37844;DHT22;63793;57.632;18.292;2023-05-10T01:36:12;7.10;99.90
37844;DHT22;63793;57.632;18.292;2023-05-10T01:39:22;7.00;99.90
37844;DHT22;63793;57.632;18.292;2023-05-10T01:41:55;7.00;99.90
37844;DHT22;63793;57.632;18.292;2023-05-10T01:47:10;6.90;99.90
37844;DHT22;63793;57.632;18.292;2023-05-10T01:49:50;6.90;99.90
37844;DHT22;63793;57.632;18.292;2023-05-10T01:52:21;6.90;99.90
37844;DHT22;63793;57.632;18.292;2023-05-10T01:54:55;6.90;99.90
37844;DHT22;63793;57.632;18.292;2023-05-10T01:57:25;6.90;99.90
37844;DHT22;63793;57.632;18.292;2023-05-10T01:59:53;6.90;99.90
37844;DHT22;63793;57.632;18.292;2023-05-10T02:02:22;6.90;99.90
37844;DHT22;63793;57.632;18.292;2023-05-10T02:04:51;6.80;99.90
37844;DHT22;63793;57.632;18.292;2023-05-10T02:07:18;6.80;99.90
37844;DHT22;63793;57.632;18.292;2023-05-10T02:09:46;6.90;99.90
37844;DHT22;63793;57.632;18.292;2023-05-10T02:12:15;6.90;99.90
37844;DHT22;63793;57.632;18.292;2023-05-10T02:14:43;6.80;99.90
37844;DHT22;63793;57.632;18.292;2023-05-10T02:17:11;6.80;99.90
37844;DHT22;63793;57.632;18.292;2023-05-10T02:19:40;6.80;99.90
37844;DHT22;63793;57.632;18.292;2023-05-10T02:22:09;6.80;99.90
37844;DHT22;63793;57.632;18.292;2023-05-10T02:24:37;6.80;99.90
37844;DHT22;63793;57.632;18.292;2023-05-10T02:27:06;6.70;99.90
37844;DHT22;63793;57.632;18.292;2023-05-10T02:29:34;6.70;99.90
37844;DHT22;63793;57.632;18.292;2023-05-10T02:32:02;6.70;99.90
37844;DHT22;63793;57.632;18.292;2023-05-10T02:34:30;6.70;99.90
37844;DHT22;63793;57.632;18.292;2023-05-10T02:36:59;6.70;99.90
37844;DHT22;63793;57.632;18.292;2023-05-10T02:39:26;6.80;99.90
37844;DHT22;63793;57.632;18.292;2023-05-10T02:41:57;6.70;99.90
37844;DHT22;63793;57.632;18.292;2023-05-10T02:44:25;6.80;99.90
37844;DHT22;63793;57.632;18.292;2023-05-10T02:46:54;6.80;99.90
37844;DHT22;63793;57.632;18.292;2023-05-10T02:49:22;6.80;99.90
37844;DHT22;63793;57.632;18.292;2023-05-10T02:51:55;6.90;99.90
37844;DHT22;63793;57.632;18.292;2023-05-10T02:54:29;6.90;99.90
37844;DHT22;63793;57.632;18.292;2023-05-10T02:56:58;7.00;99.90
37844;DHT22;63793;57.632;18.292;2023-05-10T02:59:27;7.00;99.90
37844;DHT22;63793;57.632;18.292;2023-05-10T03:01:54;7.00;99.90
37844;DHT22;63793;57.632;18.292;2023-05-10T03:04:21;7.00;99.90
37844;DHT22;63793;57.632;18.292;2023-05-10T03:06:49;7.00;99.90
37844;DHT22;63793;57.632;18.292;2023-05-10T03:09:16;7.00;99.90
37844;DHT22;63793;57.632;18.292;2023-05-10T03:19:57;7.10;99.90
37844;DHT22;63793;57.632;18.292;2023-05-10T03:22:36;7.10;99.90
37844;DHT22;63793;57.632;18.292;2023-05-10T03:25:06;7.20;99.90
37844;DHT22;63793;57.632;18.292;2023-05-10T03:27:36;7.10;99.90
37844;DHT22;63793;57.632;18.292;2023-05-10T03:30:05;7.20;99.90
37844;DHT22;63793;57.632;18.292;2023-05-10T03:32:34;7.20;99.90
37844;DHT22;63793;57.632;18.292;2023-05-10T03:35:09;7.20;99.90
37844;DHT22;63793;57.632;18.292;2023-05-10T03:37:36;7.20;99.90
37844;DHT22;63793;57.632;18.292;2023-05-10T03:40:04;7.20;99.90
37844;DHT22;63793;57.632;18.292;2023-05-10T03:42:33;7.20;99.90
37844;DHT22;63793;57.632;18.292;2023-05-10T03:45:01;7.20;99.90
37844;DHT22;63793;57.632;18.292;2023-05-10T03:47:28;7.20;99.90
37844;DHT22;63793;57.632;18.292;2023-05-10T03:49:57;7.30;99.90
37844;DHT22;63793;57.632;18.292;2023-05-10T03:52:24;7.30;99.90
37844;DHT22;63793;57.632;18.292;2023-05-10T03:54:50;7.30;99.90
37844;DHT22;63793;57.632;18.292;2023-05-10T03:57:17;7.40;99.90
37844;DHT22;63793;57.632;18.292;2023-05-10T03:59:44;7.40;99.90
37844;DHT22;63793;57.632;18.292;2023-05-10T04:02:11;7.40;99.90
37844;DHT22;63793;57.632;18.292;2023-05-10T04:04:38;7.40;99.90
37844;DHT22;63793;57.632;18.292;2023-05-10T04:07:05;7.50;99.90
37844;DHT22;63793;57.632;18.292;2023-05-10T04:09:33;7.50;99.90
37844;DHT22;63793;57.632;18.292;2023-05-10T04:12:00;7.60;99.90
37844;DHT22;63793;57.632;18.292;2023-05-10T04:14:29;7.70;99.90
37844;DHT22;63793;57.632;18.292;2023-05-10T04:16:55;7.80;99.90
37844;DHT22;63793;57.632;18.292;2023-05-10T04:19:22;7.80;99.90
37844;DHT22;63793;57.632;18.292;2023-05-10T04:21:49;7.80;99.90
37844;DHT22;63793;57.632;18.292;2023-05-10T04:24:16;8.00;99.90
37844;DHT22;63793;57.632;18.292;2023-05-10T04:26:43;8.00;99.90
37844;DHT22;63793;57.632;18.292;2023-05-10T04:29:10;8.00;99.90
37844;DHT22;63793;57.632;18.292;2023-05-10T04:31:37;8.00;99.90
37844;DHT22;63793;57.632;18.292;2023-05-10T04:34:04;8.10;99.90
37844;DHT22;63793;57.632;18.292;2023-05-10T04:36:31;8.10;99.90
37844;DHT22;63793;57.632;18.292;2023-05-10T04:39:00;8.20;99.90
37844;DHT22;63793;57.632;18.292;2023-05-10T04:41:27;8.30;99.90
37844;DHT22;63793;57.632;18.292;2023-05-10T04:43:54;8.40;99.90
37844;DHT22;63793;57.632;18.292;2023-05-10T04:46:21;8.50;99.90
37844;DHT22;63793;57.632;18.292;2023-05-10T04:48:48;8.60;99.90
37844;DHT22;63793;57.632;18.292;2023-05-10T04:51:15;8.70;99.90
37844;DHT22;63793;57.632;18.292;2023-05-10T04:53:41;8.90;99.90
37844;DHT22;63793;57.632;18.292;2023-05-10T04:56:19;9.00;99.90
37844;DHT22;63793;57.632;18.292;2023-05-10T04:58:46;9.00;99.90
37844;DHT22;63793;57.632;18.292;2023-05-10T05:01:13;9.20;99.90
37844;DHT22;63793;57.632;18.292;2023-05-10T05:03:40;9.20;99.90
37844;DHT22;63793;57.632;18.292;2023-05-10T05:06:07;9.30;99.90
37844;DHT22;63793;57.632;18.292;2023-05-10T05:08:34;9.40;99.90
37844;DHT22;63793;57.632;18.292;2023-05-10T05:11:01;9.50;99.90
37844;DHT22;63793;57.632;18.292;2023-05-10T05:13:28;9.60;99.90
37844;DHT22;63793;57.632;18.292;2023-05-10T05:15:55;9.60;99.90
37844;DHT22;63793;57.632;18.292;2023-05-10T05:18:22;9.70;99.90
37844;DHT22;63793;57.632;18.292;2023-05-10T05:20:49;9.90;99.90
37844;DHT22;63793;57.632;18.292;2023-05-10T05:23:16;10.10;99.90
37844;DHT22;63793;57.632;18.292;2023-05-10T05:25:43;10.10;99.90
37844;DHT22;63793;57.632;18.292;2023-05-10T05:28:09;10.30;99.90
37844;DHT22;63793;57.632;18.292;2023-05-10T05:30:36;10.40;99.90
37844;DHT22;63793;57.632;18.292;2023-05-10T05:33:03;10.50;99.90
37844;DHT22;63793;57.632;18.292;2023-05-10T05:35:30;10.70;99.90
37844;DHT22;63793;57.632;18.292;2023-05-10T05:37:57;10.80;99.90
37844;DHT22;63793;57.632;18.292;2023-05-10T05:40:24;10.90;99.90
37844;DHT22;63793;57.632;18.292;2023-05-10T05:42:51;11.00;99.90
37844;DHT22;63793;57.632;18.292;2023-05-10T05:45:18;11.20;99.90
37844;DHT22;63793;57.632;18.292;2023-05-10T05:47:45;11.30;99.90
37844;DHT22;63793;57.632;18.292;2023-05-10T05:50:12;11.40;99.90
37844;DHT22;63793;57.632;18.292;2023-05-10T05:52:39;11.40;99.90
37844;DHT22;63793;57.632;18.292;2023-05-10T05:55:06;11.50;99.70
37844;DHT22;63793;57.632;18.292;2023-05-10T05:57:33;11.60;99.30
37844;DHT22;63793;57.632;18.292;2023-05-10T06:00:00;11.70;98.90
37844;DHT22;63793;57.632;18.292;2023-05-10T06:02:27;11.90;97.90
37844;DHT22;63793;57.632;18.292;2023-05-10T06:04:54;12.10;98.10
37844;DHT22;63793;57.632;18.292;2023-05-10T06:07:21;12.20;98.30
37844;DHT22;63793;57.632;18.292;2023-05-10T06:09:48;12.30;97.10
37844;DHT22;63793;57.632;18.292;2023-05-10T06:12:15;12.50;97.40
37844;DHT22;63793;57.632;18.292;2023-05-10T06:14:41;12.50;97.20
37844;DHT22;63793;57.632;18.292;2023-05-10T06:17:08;12.60;96.80
37844;DHT22;63793;57.632;18.292;2023-05-10T06:19:35;12.80;96.20
37844;DHT22;63793;57.632;18.292;2023-05-10T06:22:03;12.90;95.80
37844;DHT22;63793;57.632;18.292;2023-05-10T06:24:30;13.00;95.50
37844;DHT22;63793;57.632;18.292;2023-05-10T06:26:57;13.20;95.40
37844;DHT22;63793;57.632;18.292;2023-05-10T06:29:26;13.40;94.40
37844;DHT22;63793;57.632;18.292;2023-05-10T06:31:53;13.50;94.00
37844;DHT22;63793;57.632;18.292;2023-05-10T06:34:20;13.70;93.30
37844;DHT22;63793;57.632;18.292;2023-05-10T06:36:47;13.80;93.10
37844;DHT22;63793;57.632;18.292;2023-05-10T06:39:14;13.90;92.00
37844;DHT22;63793;57.632;18.292;2023-05-10T06:41:41;14.00;92.10
37844;DHT22;63793;57.632;18.292;2023-05-10T06:44:08;14.10;92.00
37844;DHT22;63793;57.632;18.292;2023-05-10T06:46:35;14.10;92.10
37844;DHT22;63793;57.632;18.292;2023-05-10T06:49:02;14.20;91.20
37844;DHT22;63793;57.632;18.292;2023-05-10T06:51:28;14.40;91.20
37844;DHT22;63793;57.632;18.292;2023-05-10T06:53:55;14.40;91.30
37844;DHT22;63793;57.632;18.292;2023-05-10T06:56:22;14.50;90.80
37844;DHT22;63793;57.632;18.292;2023-05-10T06:58:49;14.50;90.20
37844;DHT22;63793;57.632;18.292;2023-05-10T07:01:16;14.60;90.90
37844;DHT22;63793;57.632;18.292;2023-05-10T07:03:43;14.70;91.60
37844;DHT22;63793;57.632;18.292;2023-05-10T07:06:10;14.80;91.30
37844;DHT22;63793;57.632;18.292;2023-05-10T07:08:51;15.00;90.30
37844;DHT22;63793;57.632;18.292;2023-05-10T07:11:18;15.10;88.40
37844;DHT22;63793;57.632;18.292;2023-05-10T07:13:45;15.20;85.70
37844;DHT22;63793;57.632;18.292;2023-05-10T07:16:13;15.20;84.40
37844;DHT22;63793;57.632;18.292;2023-05-10T07:18:39;15.30;84.70
37844;DHT22;63793;57.632;18.292;2023-05-10T07:21:06;15.40;85.40
37844;DHT22;63793;57.632;18.292;2023-05-10T07:23:33;15.40;87.40
37844;DHT22;63793;57.632;18.292;2023-05-10T07:26:00;15.50;84.90
37844;DHT22;63793;57.632;18.292;2023-05-10T07:28:28;15.60;83.30
37844;DHT22;63793;57.632;18.292;2023-05-10T07:30:55;15.70;82.80
37844;DHT22;63793;57.632;18.292;2023-05-10T07:33:22;15.70;80.10
37844;DHT22;63793;57.632;18.292;2023-05-10T07:35:49;15.80;80.80
37844;DHT22;63793;57.632;18.292;2023-05-10T07:38:16;15.90;80.30
37844;DHT22;63793;57.632;18.292;2023-05-10T07:40:44;16.00;79.80
37844;DHT22;63793;57.632;18.292;2023-05-10T07:43:10;16.10;80.10
37844;DHT22;63793;57.632;18.292;2023-05-10T07:45:37;16.10;80.40
37844;DHT22;63793;57.632;18.292;2023-05-10T07:48:04;16.20;80.30
37844;DHT22;63793;57.632;18.292;2023-05-10T07:50:31;16.30;81.70
37844;DHT22;63793;57.632;18.292;2023-05-10T07:52:58;16.40;80.10
37844;DHT22;63793;57.632;18.292;2023-05-10T07:55:25;16.40;81.00
37844;DHT22;63793;57.632;18.292;2023-05-10T07:57:52;16.50;79.60
37844;DHT22;63793;57.632;18.292;2023-05-10T08:00:20;16.60;79.50
37844;DHT22;63793;57.632;18.292;2023-05-10T08:02:47;16.60;78.60
37844;DHT22;63793;57.632;18.292;2023-05-10T08:05:14;16.80;75.90
37844;DHT22;63793;57.632;18.292;2023-05-10T08:07:42;16.70;77.40
37844;DHT22;63793;57.632;18.292;2023-05-10T08:10:09;16.80;77.30
37844;DHT22;63793;57.632;18.292;2023-05-10T08:12:37;16.90;76.40
37844;DHT22;63793;57.632;18.292;2023-05-10T08:15:05;17.00;76.10
37844;DHT22;63793;57.632;18.292;2023-05-10T08:17:33;17.00;75.40
37844;DHT22;63793;57.632;18.292;2023-05-10T08:20:00;17.00;74.70
37844;DHT22;63793;57.632;18.292;2023-05-10T08:22:27;17.10;72.50
37844;DHT22;63793;57.632;18.292;2023-05-10T08:24:53;17.20;73.10
37844;DHT22;63793;57.632;18.292;2023-05-10T08:27:21;17.30;74.20
37844;DHT22;63793;57.632;18.292;2023-05-10T08:29:47;17.30;73.30
37844;DHT22;63793;57.632;18.292;2023-05-10T08:32:16;17.40;72.20
37844;DHT22;63793;57.632;18.292;2023-05-10T08:34:43;17.40;72.60
37844;DHT22;63793;57.632;18.292;2023-05-10T08:37:10;17.50;72.70
37844;DHT22;63793;57.632;18.292;2023-05-10T08:39:39;17.50;71.20
37844;DHT22;63793;57.632;18.292;2023-05-10T08:42:07;17.50;71.60
37844;DHT22;63793;57.632;18.292;2023-05-10T08:44:36;17.60;71.50
37844;DHT22;63793;57.632;18.292;2023-05-10T08:47:05;17.80;71.00
37844;DHT22;63793;57.632;18.292;2023-05-10T08:49:37;17.80;69.10
37844;DHT22;63793;57.632;18.292;2023-05-10T08:52:04;17.80;67.60
37844;DHT22;63793;57.632;18.292;2023-05-10T08:54:32;17.80;69.00
37844;DHT22;63793;57.632;18.292;2023-05-10T08:57:00;17.80;67.80
37844;DHT22;63793;57.632;18.292;2023-05-10T08:59:27;17.90;67.90
37844;DHT22;63793;57.632;18.292;2023-05-10T09:01:57;17.80;67.10
37844;DHT22;63793;57.632;18.292;2023-05-10T09:04:24;18.00;68.80
37844;DHT22;63793;57.632;18.292;2023-05-10T09:06:52;18.10;67.80
37844;DHT22;63793;57.632;18.292;2023-05-10T09:09:19;18.00;66.90
37844;DHT22;63793;57.632;18.292;2023-05-10T09:11:47;18.10;67.70
37844;DHT22;63793;57.632;18.292;2023-05-10T09:14:15;18.20;68.50
37844;DHT22;63793;57.632;18.292;2023-05-10T09:16:42;18.30;67.50
37844;DHT22;63793;57.632;18.292;2023-05-10T09:19:09;18.40;66.90
37844;DHT22;63793;57.632;18.292;2023-05-10T09:21:36;18.40;66.00
37844;DHT22;63793;57.632;18.292;2023-05-10T09:24:07;18.50;64.80
37844;DHT22;63793;57.632;18.292;2023-05-10T09:26:35;18.40;65.70
37844;DHT22;63793;57.632;18.292;2023-05-10T09:29:03;18.40;66.40
37844;DHT22;63793;57.632;18.292;2023-05-10T09:31:47;18.40;65.00
37844;DHT22;63793;57.632;18.292;2023-05-10T09:34:18;18.40;65.50
37844;DHT22;63793;57.632;18.292;2023-05-10T09:36:57;18.50;66.20
37844;DHT22;63793;57.632;18.292;2023-05-10T09:39:37;18.60;65.00
37844;DHT22;63793;57.632;18.292;2023-05-10T09:42:06;18.80;66.60
37844;DHT22;63793;57.632;18.292;2023-05-10T09:44:34;18.80;64.70
37844;DHT22;63793;57.632;18.292;2023-05-10T09:47:01;18.80;63.60
37844;DHT22;63793;57.632;18.292;2023-05-10T09:49:29;18.80;63.80
37844;DHT22;63793;57.632;18.292;2023-05-10T09:52:06;18.80;63.70
37844;DHT22;63793;57.632;18.292;2023-05-10T09:54:34;18.90;64.10
37844;DHT22;63793;57.632;18.292;2023-05-10T09:57:01;18.90;64.60
37844;DHT22;63793;57.632;18.292;2023-05-10T09:59:29;19.00;64.50
37844;DHT22;63793;57.632;18.292;2023-05-10T10:01:57;19.00;63.00
37844;DHT22;63793;57.632;18.292;2023-05-10T10:04:25;18.90;64.20
37844;DHT22;63793;57.632;18.292;2023-05-10T10:07:03;19.10;65.10
37844;DHT22;63793;57.632;18.292;2023-05-10T10:09:31;19.20;64.10
37844;DHT22;63793;57.632;18.292;2023-05-10T10:12:02;19.30;64.10
37844;DHT22;63793;57.632;18.292;2023-05-10T10:14:30;19.40;64.20
37844;DHT22;63793;57.632;18.292;2023-05-10T10:16:57;19.40;61.90
37844;DHT22;63793;57.632;18.292;2023-05-10T10:19:34;19.30;63.00
37844;DHT22;63793;57.632;18.292;2023-05-10T10:22:02;19.10;63.60
37844;DHT22;63793;57.632;18.292;2023-05-10T10:24:29;19.20;63.60
37844;DHT22;63793;57.632;18.292;2023-05-10T10:27:11;19.20;62.20
37844;DHT22;63793;57.632;18.292;2023-05-10T10:30:10;19.20;62.20
37844;DHT22;63793;57.632;18.292;2023-05-10T10:35:39;19.30;63.00
37844;DHT22;63793;57.632;18.292;2023-05-10T10:38:08;19.40;61.90
37844;DHT22;63793;57.632;18.292;2023-05-10T10:40:35;19.40;62.80
37844;DHT22;63793;57.632;18.292;2023-05-10T10:46:10;19.50;63.90
37844;DHT22;63793;57.632;18.292;2023-05-10T10:48:49;19.60;62.30
37844;DHT22;63793;57.632;18.292;2023-05-10T10:51:17;19.70;63.30
37844;DHT22;63793;57.632;18.292;2023-05-10T10:53:44;19.70;62.60
37844;DHT22;63793;57.632;18.292;2023-05-10T10:56:14;19.70;62.30
37844;DHT22;63793;57.632;18.292;2023-05-10T10:58:49;19.70;63.30
37844;DHT22;63793;57.632;18.292;2023-05-10T11:01:19;19.80;63.80
37844;DHT22;63793;57.632;18.292;2023-05-10T11:06:42;19.90;63.90
37844;DHT22;63793;57.632;18.292;2023-05-10T11:09:11;19.80;61.80
37844;DHT22;63793;57.632;18.292;2023-05-10T11:11:54;19.70;61.40
37844;DHT22;63793;57.632;18.292;2023-05-10T11:14:25;19.70;62.70
37844;DHT22;63793;57.632;18.292;2023-05-10T11:16:52;19.60;61.30
37844;DHT22;63793;57.632;18.292;2023-05-10T11:19:19;19.60;61.40
37844;DHT22;63793;57.632;18.292;2023-05-10T11:22:31;19.70;61.40
37844;DHT22;63793;57.632;18.292;2023-05-10T11:24:56;19.80;61.70
37844;DHT22;63793;57.632;18.292;2023-05-10T11:27:24;19.70;61.20
37844;DHT22;63793;57.632;18.292;2023-05-10T11:29:52;19.70;63.00
37844;DHT22;63793;57.632;18.292;2023-05-10T11:32:19;19.90;62.40
37844;DHT22;63793;57.632;18.292;2023-05-10T11:34:47;20.00;61.90
37844;DHT22;63793;57.632;18.292;2023-05-10T11:37:14;20.10;60.50
37844;DHT22;63793;57.632;18.292;2023-05-10T11:39:45;19.80;59.90
37844;DHT22;63793;57.632;18.292;2023-05-10T11:42:14;19.70;61.70
37844;DHT22;63793;57.632;18.292;2023-05-10T11:44:40;19.60;61.40
37844;DHT22;63793;57.632;18.292;2023-05-10T11:47:08;19.80;62.50
37844;DHT22;63793;57.632;18.292;2023-05-10T11:49:35;19.80;60.70
37844;DHT22;63793;57.632;18.292;2023-05-10T11:52:08;19.60;61.70
37844;DHT22;63793;57.632;18.292;2023-05-10T11:54:35;19.80;60.60
37844;DHT22;63793;57.632;18.292;2023-05-10T11:57:03;19.80;60.80
37844;DHT22;63793;57.632;18.292;2023-05-10T11:59:30;19.90;60.80
37844;DHT22;63793;57.632;18.292;2023-05-10T12:01:57;19.90;61.80
37844;DHT22;63793;57.632;18.292;2023-05-10T12:04:24;20.00;60.80
37844;DHT22;63793;57.632;18.292;2023-05-10T12:06:52;20.00;63.00
37844;DHT22;63793;57.632;18.292;2023-05-10T12:09:19;19.80;59.30
37844;DHT22;63793;57.632;18.292;2023-05-10T12:12:05;19.70;60.90
37844;DHT22;63793;57.632;18.292;2023-05-10T12:14:34;19.80;60.90
37844;DHT22;63793;57.632;18.292;2023-05-10T12:17:02;19.80;59.90
37844;DHT22;63793;57.632;18.292;2023-05-10T12:19:37;20.10;61.10
37844;DHT22;63793;57.632;18.292;2023-05-10T12:22:07;19.90;60.40
37844;DHT22;63793;57.632;18.292;2023-05-10T12:24:35;20.00;61.10
37844;DHT22;63793;57.632;18.292;2023-05-10T12:27:07;20.00;60.80
37844;DHT22;63793;57.632;18.292;2023-05-10T12:29:52;20.10;61.00
37844;DHT22;63793;57.632;18.292;2023-05-10T12:32:40;20.00;59.20
37844;DHT22;63793;57.632;18.292;2023-05-10T12:35:07;19.80;59.70
37844;DHT22;63793;57.632;18.292;2023-05-10T12:37:35;20.00;61.90
37844;DHT22;63793;57.632;18.292;2023-05-10T12:40:06;20.10;63.10
37844;DHT22;63793;57.632;18.292;2023-05-10T12:42:35;20.40;62.50
37844;DHT22;63793;57.632;18.292;2023-05-10T12:45:03;20.10;59.00
37844;DHT22;63793;57.632;18.292;2023-05-10T12:47:31;20.10;59.90
37844;DHT22;63793;57.632;18.292;2023-05-10T12:49:59;20.30;60.10
37844;DHT22;63793;57.632;18.292;2023-05-10T12:52:27;20.40;58.90
37844;DHT22;63793;57.632;18.292;2023-05-10T12:54:54;20.10;60.80
37844;DHT22;63793;57.632;18.292;2023-05-10T12:57:21;20.00;58.60
37844;DHT22;63793;57.632;18.292;2023-05-10T12:59:48;20.10;58.50
37844;DHT22;63793;57.632;18.292;2023-05-10T13:02:15;19.90;59.00
37844;DHT22;63793;57.632;18.292;2023-05-10T13:04:45;19.70;58.40
37844;DHT22;63793;57.632;18.292;2023-05-10T13:07:16;19.60;58.50
37844;DHT22;63793;57.632;18.292;2023-05-10T13:09:43;19.90;58.60
37844;DHT22;63793;57.632;18.292;2023-05-10T13:12:10;19.80;59.60
37844;DHT22;63793;57.632;18.292;2023-05-10T13:14:37;19.80;59.60
37844;DHT22;63793;57.632;18.292;2023-05-10T13:17:04;20.00;60.00
37844;DHT22;63793;57.632;18.292;2023-05-10T13:19:31;20.10;58.80
37844;DHT22;63793;57.632;18.292;2023-05-10T13:21:58;20.10;59.30
37844;DHT22;63793;57.632;18.292;2023-05-10T13:24:24;20.10;57.80
37844;DHT22;63793;57.632;18.292;2023-05-10T13:26:51;20.00;57.50
37844;DHT22;63793;57.632;18.292;2023-05-10T13:29:18;20.10;57.50
37844;DHT22;63793;57.632;18.292;2023-05-10T13:31:45;20.10;55.80
37844;DHT22;63793;57.632;18.292;2023-05-10T13:34:12;20.00;56.80
37844;DHT22;63793;57.632;18.292;2023-05-10T13:36:39;20.20;57.30
37844;DHT22;63793;57.632;18.292;2023-05-10T13:39:06;20.00;56.80
37844;DHT22;63793;57.632;18.292;2023-05-10T13:41:33;20.00;57.20
37844;DHT22;63793;57.632;18.292;2023-05-10T13:44:00;20.00;56.80
37844;DHT22;63793;57.632;18.292;2023-05-10T13:46:28;19.80;56.10
37844;DHT22;63793;57.632;18.292;2023-05-10T13:48:55;19.80;57.00
37844;DHT22;63793;57.632;18.292;2023-05-10T13:51:23;19.90;57.10
37844;DHT22;63793;57.632;18.292;2023-05-10T13:53:50;20.10;56.70
37844;DHT22;63793;57.632;18.292;2023-05-10T13:56:17;20.10;57.00
37844;DHT22;63793;57.632;18.292;2023-05-10T13:58:43;20.40;57.00
37844;DHT22;63793;57.632;18.292;2023-05-10T14:01:10;20.00;55.20
37844;DHT22;63793;57.632;18.292;2023-05-10T14:03:38;20.10;56.70
37844;DHT22;63793;57.632;18.292;2023-05-10T14:06:06;20.00;55.70
37844;DHT22;63793;57.632;18.292;2023-05-10T14:08:35;20.10;56.30
37844;DHT22;63793;57.632;18.292;2023-05-10T14:11:02;20.20;56.20
37844;DHT22;63793;57.632;18.292;2023-05-10T14:13:29;20.40;56.00
37844;DHT22;63793;57.632;18.292;2023-05-10T14:15:56;20.30;55.00
37844;DHT22;63793;57.632;18.292;2023-05-10T14:18:23;20.10;56.30
37844;DHT22;63793;57.632;18.292;2023-05-10T14:20:50;20.00;55.00
37844;DHT22;63793;57.632;18.292;2023-05-10T14:23:17;19.90;54.90
37844;DHT22;63793;57.632;18.292;2023-05-10T14:25:46;20.10;55.50
37844;DHT22;63793;57.632;18.292;2023-05-10T14:28:13;20.00;55.30
37844;DHT22;63793;57.632;18.292;2023-05-10T14:30:40;20.00;55.20
37844;DHT22;63793;57.632;18.292;2023-05-10T14:33:06;20.10;55.40
37844;DHT22;63793;57.632;18.292;2023-05-10T14:35:34;20.00;54.90
37844;DHT22;63793;57.632;18.292;2023-05-10T14:38:04;20.00;55.30
37844;DHT22;63793;57.632;18.292;2023-05-10T14:40:31;20.20;55.30
37844;DHT22;63793;57.632;18.292;2023-05-10T14:42:58;20.40;55.10
37844;DHT22;63793;57.632;18.292;2023-05-10T14:45:25;20.40;55.50
37844;DHT22;63793;57.632;18.292;2023-05-10T14:47:52;20.60;55.90
37844;DHT22;63793;57.632;18.292;2023-05-10T14:50:19;20.40;56.50
37844;DHT22;63793;57.632;18.292;2023-05-10T14:53:02;20.50;55.40
37844;DHT22;63793;57.632;18.292;2023-05-10T14:55:29;20.50;54.70
37844;DHT22;63793;57.632;18.292;2023-05-10T14:57:56;20.50;55.10
37844;DHT22;63793;57.632;18.292;2023-05-10T15:00:25;20.40;54.80
37844;DHT22;63793;57.632;18.292;2023-05-10T15:02:52;20.30;55.10
37844;DHT22;63793;57.632;18.292;2023-05-10T15:05:19;20.30;55.00
37844;DHT22;63793;57.632;18.292;2023-05-10T15:07:47;20.40;55.10
37844;DHT22;63793;57.632;18.292;2023-05-10T15:10:14;20.60;55.60
37844;DHT22;63793;57.632;18.292;2023-05-10T15:12:41;20.90;55.60
37844;DHT22;63793;57.632;18.292;2023-05-10T15:15:08;20.80;54.40
37844;DHT22;63793;57.632;18.292;2023-05-10T15:17:35;21.00;55.40
37844;DHT22;63793;57.632;18.292;2023-05-10T15:20:02;21.10;55.00
37844;DHT22;63793;57.632;18.292;2023-05-10T15:22:30;21.10;55.10
37844;DHT22;63793;57.632;18.292;2023-05-10T15:25:00;21.00;54.20
37844;DHT22;63793;57.632;18.292;2023-05-10T15:27:27;21.00;55.00
37844;DHT22;63793;57.632;18.292;2023-05-10T15:29:54;20.80;55.30
37844;DHT22;63793;57.632;18.292;2023-05-10T15:32:21;21.30;55.50
37844;DHT22;63793;57.632;18.292;2023-05-10T15:34:48;21.40;54.70
37844;DHT22;63793;57.632;18.292;2023-05-10T15:37:15;21.50;54.90
37844;DHT22;63793;57.632;18.292;2023-05-10T15:39:42;21.70;55.10
37844;DHT22;63793;57.632;18.292;2023-05-10T15:42:09;21.70;54.90
37844;DHT22;63793;57.632;18.292;2023-05-10T15:44:36;21.60;54.40
37844;DHT22;63793;57.632;18.292;2023-05-10T15:47:05;21.30;54.50
37844;DHT22;63793;57.632;18.292;2023-05-10T15:49:32;21.20;54.70
37844;DHT22;63793;57.632;18.292;2023-05-10T15:51:59;21.20;55.00
37844;DHT22;63793;57.632;18.292;2023-05-10T15:54:26;21.40;55.30
37844;DHT22;63793;57.632;18.292;2023-05-10T15:56:53;21.40;55.10
37844;DHT22;63793;57.632;18.292;2023-05-10T15:59:21;21.50;55.20
37844;DHT22;63793;57.632;18.292;2023-05-10T16:01:47;21.90;53.90
37844;DHT22;63793;57.632;18.292;2023-05-10T16:04:15;21.50;54.50